createdAt,value
2017-06-17T00:00:49.983Z,-1.4
2017-06-17T00:01:49.788Z,-1.4
2017-06-17T00:02:48.004Z,-1.4
2017-06-17T00:03:47.738Z,-1.4
2017-06-17T00:04:46.539Z,-1.4
2017-06-17T00:05:46.280Z,-1.4
2017-06-17T00:06:45.518Z,-1.4
2017-06-17T00:07:44.744Z,-1.5
2017-06-17T00:08:44.043Z,-1.5
2017-06-17T00:09:43.279Z,-1.5
2017-06-17T00:10:42.511Z,-1.5
2017-06-17T00:11:41.746Z,-1.5
2017-06-17T00:12:40.969Z,-1.5
2017-06-17T00:13:40.081Z,-1.6
2017-06-17T00:14:39.327Z,-1.5
2017-06-17T00:15:38.577Z,-1.5
2017-06-17T00:16:37.571Z,-1.5
2017-06-17T00:17:37.189Z,-1.5
2017-06-17T00:18:36.419Z,-1.5
2017-06-17T00:21:33.815Z,-1.6
2017-06-17T00:22:33.558Z,-1.5
2017-06-17T00:23:32.790Z,-1.5
2017-06-17T00:24:32.025Z,-1.4
2017-06-17T00:25:31.256Z,-1.4
2017-06-17T00:26:30.486Z,-1.4
2017-06-17T00:27:30.181Z,-1.4
2017-06-17T00:28:28.911Z,-1.4
2017-06-17T00:29:28.144Z,-1.3
2017-06-17T00:30:27.142Z,-1.3
2017-06-17T00:31:26.755Z,-1.4
2017-06-17T00:32:25.991Z,-1.4
2017-06-17T00:33:25.223Z,-1.4
2017-06-17T00:34:24.099Z,-1.3
2017-06-17T00:35:23.717Z,-1.4
2017-06-17T00:36:23.533Z,-1.4
2017-06-17T00:37:22.258Z,-1.4
2017-06-17T00:38:21.484Z,-1.3
2017-06-17T00:40:20.118Z,-1.3
2017-06-17T00:41:19.349Z,-1.4
2017-06-17T00:42:18.588Z,-1.3
2017-06-17T00:43:17.703Z,-1.3
2017-06-17T00:44:16.811Z,-1.3
2017-06-17T00:45:16.042Z,-1.4
2017-06-17T00:46:15.277Z,-1.4
2017-06-17T00:47:14.506Z,-1.4
2017-06-17T00:48:14.240Z,-1.4
2017-06-17T00:49:13.116Z,-1.4
2017-06-17T00:50:12.237Z,-1.4
2017-06-17T00:51:11.855Z,-1.4
2017-06-17T00:52:10.971Z,-1.4
2017-06-17T00:53:10.198Z,-1.4
2017-06-17T00:54:09.316Z,-1.5
2017-06-17T00:55:08.431Z,-1.5
2017-06-17T00:56:07.933Z,-1.4
2017-06-17T00:57:07.621Z,-1.5
2017-06-17T00:58:06.225Z,-1.4
2017-06-17T00:59:05.959Z,-1.4
2017-06-17T01:00:05.072Z,-1.4
2017-06-17T01:01:04.299Z,-1.4
2017-06-17T01:02:03.407Z,-1.4
2017-06-17T01:03:03.209Z,-1.5
2017-06-17T01:04:01.819Z,-1.5
2017-06-17T01:05:01.047Z,-1.5
2017-06-17T01:06:00.271Z,-1.5
2017-06-17T01:06:59.383Z,-1.5
2017-06-17T01:07:59.125Z,-1.5
2017-06-17T01:08:58.696Z,-1.5
2017-06-17T01:09:57.423Z,-1.4
2017-06-17T01:10:57.232Z,-1.5
2017-06-17T01:11:55.609Z,-1.5
2017-06-17T01:12:55.344Z,-1.5
2017-06-17T01:13:54.571Z,-1.5
2017-06-17T01:15:53.078Z,-1.5
2017-06-17T01:16:52.403Z,-1.6
2017-06-17T01:17:51.639Z,-1.6
2017-06-17T01:18:50.754Z,-1.6
2017-06-17T01:19:50.569Z,-1.6
2017-06-17T01:20:49.301Z,-1.6
2017-06-17T01:21:48.535Z,-1.6
2017-06-17T01:22:47.772Z,-1.6
2017-06-17T01:23:46.889Z,-1.6
2017-06-17T01:24:46.123Z,-1.7
2017-06-17T01:25:45.357Z,-1.7
2017-06-17T01:26:44.584Z,-1.7
2017-06-17T01:27:43.821Z,-1.7
2017-06-17T01:28:43.623Z,-1.7
2017-06-17T01:29:42.349Z,-1.7
2017-06-17T01:30:41.574Z,-1.8
2017-06-17T01:31:12.124Z,-1.8
2017-06-17T01:31:42.192Z,-1.7
2017-06-17T01:32:40.297Z,-1.7
2017-06-17T01:33:39.411Z,-1.7
2017-06-17T01:34:38.409Z,-1.7
2017-06-17T01:35:37.659Z,-1.7
2017-06-17T01:36:36.901Z,-1.8
2017-06-17T01:37:36.512Z,-1.8
2017-06-17T01:38:35.743Z,-1.8
2017-06-17T01:39:34.976Z,-1.8
2017-06-17T01:41:32.975Z,-1.8
2017-06-17T01:42:32.581Z,-1.9
2017-06-17T01:43:31.824Z,-1.9
2017-06-17T01:44:31.078Z,-1.9
2017-06-17T01:45:30.380Z,6.1
2017-06-17T01:46:29.701Z,-1.9
2017-06-17T01:47:28.926Z,-1.9
2017-06-17T01:48:27.564Z,-2
2017-06-17T01:49:27.182Z,-2
2017-06-17T01:50:26.410Z,-2
2017-06-17T01:51:25.657Z,-2
2017-06-17T01:52:24.776Z,-2
2017-06-17T01:53:24.158Z,-2
2017-06-17T01:54:23.267Z,-2
2017-06-17T01:55:22.497Z,-2
2017-06-17T01:56:21.727Z,-2
2017-06-17T01:58:20.590Z,-1.8
2017-06-17T01:59:19.829Z,-1.9
2017-06-17T02:00:19.072Z,-2
2017-06-17T02:01:18.178Z,-2
2017-06-17T02:02:17.407Z,-1.9
2017-06-17T02:03:16.637Z,-1.9
2017-06-17T02:04:15.874Z,-1.9
2017-06-17T02:05:15.104Z,-2
2017-06-17T02:06:14.334Z,-1.9
2017-06-17T02:07:13.459Z,-1.9
2017-06-17T02:08:12.569Z,-1.9
2017-06-17T02:10:11.071Z,-1.9
2017-06-17T02:11:10.184Z,-1.9
2017-06-17T02:12:09.802Z,-1.8
2017-06-17T02:13:09.038Z,-1.9
2017-06-17T02:14:08.266Z,-1.8
2017-06-17T02:15:07.383Z,-1.8
2017-06-17T02:17:06.461Z,-1.8
2017-06-17T02:18:04.717Z,-1.8
2017-06-17T02:19:04.455Z,-1.7
2017-06-17T02:20:03.685Z,-1.6
2017-06-17T02:21:02.863Z,-1.6
2017-06-17T02:22:02.435Z,-1.7
2017-06-17T02:23:01.165Z,-1.7
2017-06-17T02:24:00.398Z,-1.8
2017-06-17T02:25:59.327Z,-1.8
2017-06-17T02:26:57.815Z,-1.8
2017-06-17T02:27:57.438Z,-1.8
2017-06-17T02:28:57.247Z,-1.9
2017-06-17T02:29:55.968Z,-1.9
2017-06-17T02:30:55.199Z,-1.9
2017-06-17T02:31:54.439Z,-1.8
2017-06-17T02:32:53.674Z,-1.8
2017-06-17T02:33:52.795Z,-1.8
2017-06-17T02:34:51.914Z,-1.8
2017-06-17T02:36:50.540Z,-1.8
2017-06-17T02:37:49.537Z,-1.8
2017-06-17T02:38:49.267Z,-1.8
2017-06-17T02:39:48.494Z,-1.8
2017-06-17T02:40:47.724Z,-1.7
2017-06-17T02:41:46.953Z,-1.7
2017-06-17T02:42:46.183Z,-1.7
2017-06-17T02:44:44.287Z,-1.7
2017-06-17T02:45:43.835Z,-1.7
2017-06-17T02:47:42.518Z,-1.7
2017-06-17T02:48:41.236Z,-1.7
2017-06-17T02:49:41.026Z,-1.7
2017-06-17T02:50:39.760Z,-1.7
2017-06-17T02:51:38.982Z,-1.7
2017-06-17T02:52:38.201Z,-1.8
2017-06-17T02:53:37.414Z,-1.8
2017-06-17T02:54:36.518Z,-1.8
2017-06-17T02:55:35.770Z,-1.8
2017-06-17T02:56:34.990Z,-1.8
2017-06-17T02:57:34.800Z,-1.7
2017-06-17T02:58:33.528Z,-1.6
2017-06-17T02:59:32.751Z,-1.6
2017-06-17T03:00:31.500Z,-1.6
2017-06-17T03:01:31.613Z,-1.6
2017-06-17T03:02:30.741Z,-1.6
2017-06-17T03:03:29.978Z,-1.6
2017-06-17T03:04:29.202Z,-1.7
2017-06-17T03:05:28.429Z,-1.6
2017-06-17T03:06:27.541Z,-1.7
2017-06-17T03:08:26.152Z,-1.7
2017-06-17T03:09:25.372Z,-1.7
2017-06-17T03:10:24.357Z,-1.7
2017-06-17T03:11:23.345Z,-1.7
2017-06-17T03:12:23.071Z,-1.7
2017-06-17T03:13:22.300Z,-1.7
2017-06-17T03:14:21.516Z,-1.7
2017-06-17T03:15:20.623Z,-1.7
2017-06-17T03:16:19.497Z,-1.7
2017-06-17T03:18:18.771Z,-1.7
2017-06-17T03:19:17.370Z,-1.7
2017-06-17T03:20:16.602Z,-1.7
2017-06-17T03:21:15.414Z,-1.7
2017-06-17T03:22:15.019Z,-1.7
2017-06-17T03:24:13.625Z,-1.7
2017-06-17T03:25:12.877Z,-1.7
2017-06-17T03:26:12.097Z,-1.7
2017-06-17T03:27:11.357Z,-1.7
2017-06-17T03:28:10.460Z,-1.7
2017-06-17T03:29:09.686Z,-1.8
2017-06-17T03:30:08.909Z,-1.7
2017-06-17T03:31:08.144Z,-1.7
2017-06-17T03:32:07.309Z,-1.7
2017-06-17T03:33:06.413Z,-1.7
2017-06-17T03:34:06.133Z,-1.6
2017-06-17T03:35:05.357Z,-1.6
2017-06-17T03:36:04.583Z,-1.7
2017-06-17T03:37:03.685Z,-1.7
2017-06-17T03:38:02.908Z,-1.7
2017-06-17T03:39:02.128Z,-1.7
2017-06-17T03:40:01.226Z,-1.8
2017-06-17T03:41:00.451Z,-1.8
2017-06-17T03:42:00.246Z,-1.7
2017-06-17T03:42:58.965Z,-1.6
2017-06-17T03:43:58.187Z,-1.6
2017-06-17T03:44:57.411Z,-1.7
2017-06-17T03:45:56.511Z,-1.6
2017-06-17T03:46:55.732Z,-1.6
2017-06-17T03:47:54.843Z,-1.6
2017-06-17T03:48:54.457Z,-1.5
2017-06-17T03:49:53.440Z,-1.6
2017-06-17T03:50:52.542Z,-1.6
2017-06-17T03:51:52.148Z,-1.6
2017-06-17T03:52:51.250Z,-1.6
2017-06-17T03:53:50.474Z,-1.7
2017-06-17T03:54:49.584Z,-1.6
2017-06-17T03:55:48.805Z,-1.7
2017-06-17T03:56:48.030Z,-1.6
2017-06-17T03:57:47.248Z,-1.6
2017-06-17T03:59:45.745Z,-1.7
2017-06-17T04:00:44.967Z,-1.7
2017-06-17T04:01:44.187Z,-1.7
2017-06-17T04:02:43.409Z,-1.7
2017-06-17T04:03:42.626Z,-1.7
2017-06-17T04:04:41.846Z,-1.7
2017-06-17T04:05:41.067Z,-1.7
2017-06-17T04:06:40.290Z,-1.7
2017-06-17T04:07:39.510Z,-1.7
2017-06-17T04:08:39.237Z,-1.8
2017-06-17T04:09:38.461Z,-1.8
2017-06-17T04:10:37.681Z,-1.6
2017-06-17T04:11:36.897Z,-1.7
2017-06-17T04:12:36.695Z,-1.7
2017-06-17T04:13:34.677Z,-1.8
2017-06-17T04:14:34.284Z,-1.8
2017-06-17T04:15:33.503Z,-1.7
2017-06-17T04:16:32.722Z,-1.7
2017-06-17T04:17:31.948Z,-1.7
2017-06-17T04:19:30.439Z,-1.7
2017-06-17T04:20:29.543Z,-1.7
2017-06-17T04:21:28.764Z,-1.7
2017-06-17T04:22:27.995Z,-1.7
2017-06-17T04:23:27.095Z,-1.7
2017-06-17T04:24:26.700Z,-1.7
2017-06-17T04:25:25.683Z,-1.6
2017-06-17T04:26:24.905Z,-1.7
2017-06-17T04:28:23.393Z,-1.6
2017-06-17T04:29:22.509Z,-1.7
2017-06-17T04:30:22.118Z,-1.6
2017-06-17T04:31:22.007Z,-1.6
2017-06-17T04:33:19.609Z,-1.7
2017-06-17T04:34:18.828Z,-1.5
2017-06-17T04:35:18.045Z,-1.6
2017-06-17T04:36:17.268Z,-1.5
2017-06-17T04:38:15.759Z,-1.4
2017-06-17T04:39:14.863Z,-1.4
2017-06-17T04:40:13.965Z,-1.4
2017-06-17T04:41:13.687Z,-1.5
2017-06-17T04:42:12.914Z,-1.5
2017-06-17T04:43:12.133Z,-1.5
2017-06-17T04:44:11.237Z,-1.4
2017-06-17T04:45:10.467Z,-1.4
2017-06-17T04:46:09.582Z,-1.3
2017-06-17T04:47:08.803Z,-1.3
2017-06-17T04:49:07.292Z,-1.3
2017-06-17T04:50:06.279Z,-1.3
2017-06-17T04:51:06.003Z,-1.3
2017-06-17T04:52:05.108Z,-1.3
2017-06-17T04:53:04.210Z,-1.4
2017-06-17T04:54:03.428Z,-1.4
2017-06-17T05:01:57.251Z,-1.4
2017-06-17T05:05:54.084Z,-1.4
2017-06-17T05:06:53.399Z,-1.5
2017-06-17T05:07:52.619Z,-1.5
2017-06-17T05:08:51.853Z,-1.5
2017-06-17T05:09:51.080Z,-1.5
2017-06-17T05:10:50.303Z,-1.5
2017-06-17T05:11:49.522Z,-1.5
2017-06-17T05:12:49.317Z,-1.5
2017-06-17T05:13:48.054Z,-1.4
2017-06-17T05:14:47.267Z,-1.4
2017-06-17T05:16:45.888Z,-1.4
2017-06-17T05:18:45.063Z,-1.5
2017-06-17T05:19:43.781Z,-1.5
2017-06-17T05:20:42.998Z,-1.5
2017-06-17T05:21:42.222Z,-1.5
2017-06-17T05:22:42.027Z,-1.5
2017-06-17T05:23:40.743Z,-1.5
2017-06-17T05:25:38.733Z,-1.5
2017-06-17T05:26:38.462Z,-1.5
2017-06-17T05:27:37.685Z,-1.5
2017-06-17T05:28:36.905Z,-1.5
2017-06-17T05:29:36.127Z,-1.5
2017-06-17T05:30:36.513Z,-1.4
2017-06-17T05:31:34.222Z,-1.4
2017-06-17T05:32:33.455Z,-1.5
2017-06-17T05:34:32.072Z,-1.5
2017-06-17T05:35:31.181Z,-1.4
2017-06-17T05:36:30.398Z,-1.4
2017-06-17T05:37:29.500Z,-1.4
2017-06-17T05:38:29.107Z,-1.4
2017-06-17T05:39:28.213Z,-1.4
2017-06-17T05:40:27.439Z,-1.6
2017-06-17T05:42:25.930Z,-1.6
2017-06-17T05:43:24.914Z,-1.6
2017-06-17T05:46:22.918Z,-1.6
2017-06-17T05:50:20.370Z,-1.6
2017-06-17T05:51:19.089Z,-1.6
2017-06-17T05:52:18.314Z,-1.6
2017-06-17T05:54:16.924Z,-1.6
2017-06-17T05:55:16.721Z,-1.6
2017-06-17T05:56:15.435Z,-1.5
2017-06-17T05:57:14.656Z,-1.5
2017-06-17T05:58:13.525Z,-1.5
2017-06-17T05:59:13.010Z,-1.5
2017-06-17T06:00:12.111Z,-1.5
2017-06-17T06:01:11.219Z,-1.5
2017-06-17T06:02:10.212Z,-1.4
2017-06-17T06:03:09.944Z,-1.4
2017-06-17T06:04:09.050Z,-1.4
2017-06-17T06:05:08.870Z,-1.4
2017-06-17T06:07:06.984Z,-1.3
2017-06-17T06:08:06.085Z,-1.3
2017-06-17T06:10:04.583Z,-1.3
2017-06-17T06:11:03.808Z,-1.4
2017-06-17T06:12:02.923Z,-1.4
2017-06-17T06:13:02.028Z,-1.4
2017-06-17T06:14:01.257Z,-1.4
2017-06-17T06:14:31.794Z,-1.4
2017-06-17T06:15:02.218Z,-1.4
2017-06-17T06:15:59.935Z,-1.4
2017-06-17T06:16:59.219Z,-1.4
2017-06-17T06:19:56.717Z,-1.4
2017-06-17T06:20:55.843Z,-1.4
2017-06-17T06:21:54.955Z,-1.4
2017-06-17T06:22:54.565Z,-1.4
2017-06-17T06:23:53.784Z,-1.5
2017-06-17T06:24:53.585Z,-1.4
2017-06-17T06:25:52.306Z,-1.4
2017-06-17T06:26:51.412Z,-1.3
2017-06-17T06:27:50.635Z,-1.3
2017-06-17T06:28:49.859Z,-1.3
2017-06-17T06:29:49.090Z,-1.3
2017-06-17T06:30:48.312Z,-1.2
2017-06-17T06:31:47.417Z,-1.2
2017-06-17T06:32:47.028Z,-1.3
2017-06-17T06:34:45.131Z,-1.2
2017-06-17T06:35:44.863Z,-1.2
2017-06-17T06:36:44.086Z,-1.2
2017-06-17T06:37:43.313Z,-1.2
2017-06-17T06:38:43.124Z,-1.2
2017-06-17T06:39:41.340Z,-1.2
2017-06-17T06:40:40.558Z,-1.2
2017-06-17T06:41:39.958Z,-1.2
2017-06-17T06:42:39.176Z,-1.3
2017-06-17T06:43:09.623Z,-1.3
2017-06-17T06:43:40.044Z,-1.3
2017-06-17T06:44:10.346Z,-1.3
2017-06-17T06:44:40.878Z,-1.3
2017-06-17T06:45:11.061Z,-1.3
2017-06-17T06:47:35.366Z,-1.4
2017-06-17T06:48:34.586Z,-1.4
2017-06-17T06:49:33.805Z,-1.4
2017-06-17T06:50:33.033Z,-1.4
2017-06-17T06:51:32.296Z,-1.4
2017-06-17T06:52:31.519Z,-1.4
2017-06-17T06:53:30.741Z,-1.3
2017-06-17T06:54:29.962Z,-1.3
2017-06-17T06:55:29.060Z,-1.3
2017-06-17T06:56:28.673Z,-1.3
2017-06-17T06:57:27.772Z,-1.3
2017-06-17T06:58:26.988Z,-1.2
2017-06-17T06:59:26.209Z,-1.2
2017-06-17T07:00:25.432Z,-1.3
2017-06-17T07:01:24.533Z,-1.2
2017-06-17T07:02:24.293Z,-1.2
2017-06-17T07:03:23.007Z,-1.3
2017-06-17T07:04:22.614Z,-1.3
2017-06-17T07:05:21.843Z,-1.2
2017-06-17T07:06:20.952Z,-1.2
2017-06-17T07:07:20.063Z,-1.2
2017-06-17T07:08:19.287Z,-1.1
2017-06-17T07:09:18.510Z,-1.2
2017-06-17T07:10:17.610Z,-1.1
2017-06-17T07:11:17.338Z,-1.2
2017-06-17T07:12:16.494Z,-1.2
2017-06-17T07:13:15.722Z,-1.2
2017-06-17T07:15:14.335Z,-1.2
2017-06-17T07:17:12.322Z,-1.2
2017-06-17T07:18:12.043Z,-1.2
2017-06-17T07:20:10.609Z,-1.2
2017-06-17T07:21:09.325Z,-1.1
2017-06-17T07:23:07.820Z,-1.1
2017-06-17T07:24:07.047Z,-1
2017-06-17T07:25:06.269Z,-0.9
2017-06-17T07:26:05.882Z,-1
2017-06-17T07:27:04.985Z,-1
2017-06-17T07:28:04.087Z,-1
2017-06-17T07:29:03.302Z,-0.9
2017-06-17T07:30:02.542Z,-0.9
2017-06-17T07:32:01.034Z,-0.9
2017-06-17T07:33:00.256Z,-0.9
2017-06-17T07:33:59.479Z,-0.9
2017-06-17T07:34:59.081Z,-0.8
2017-06-17T07:35:58.180Z,-0.8
2017-06-17T07:36:57.280Z,-0.8
2017-06-17T07:37:56.387Z,-0.8
2017-06-17T07:38:55.875Z,-0.8
2017-06-17T07:40:54.494Z,-0.8
2017-06-17T07:41:53.720Z,-0.9
2017-06-17T07:42:52.935Z,-0.8
2017-06-17T07:44:51.425Z,-0.8
2017-06-17T07:45:51.225Z,-0.7
2017-06-17T07:46:49.945Z,-0.7
2017-06-17T07:47:49.168Z,-0.7
2017-06-17T07:48:48.393Z,-0.7
2017-06-17T07:49:47.612Z,-0.7
2017-06-17T07:50:46.839Z,-0.7
2017-06-17T07:51:45.943Z,-0.7
2017-06-17T07:52:45.048Z,-0.7
2017-06-17T07:54:43.418Z,-0.7
2017-06-17T07:55:43.147Z,-0.6
2017-06-17T07:56:42.368Z,-0.6
2017-06-17T07:57:41.474Z,-0.6
2017-06-17T07:58:41.346Z,-0.6
2017-06-17T07:59:40.063Z,-0.6
2017-06-17T08:00:39.282Z,-0.6
2017-06-17T08:01:38.397Z,-0.6
2017-06-17T08:02:37.616Z,-0.5
2017-06-17T08:03:36.841Z,-0.6
2017-06-17T08:04:36.086Z,-0.6
2017-06-17T08:05:35.870Z,-0.6
2017-06-17T08:06:34.384Z,-0.6
2017-06-17T08:07:34.691Z,-0.5
2017-06-17T08:08:33.407Z,-0.5
2017-06-17T08:09:32.627Z,-0.5
2017-06-17T08:10:31.731Z,-0.5
2017-06-17T08:11:30.951Z,-0.4
2017-06-17T08:12:30.183Z,-0.4
2017-06-17T08:13:29.293Z,-0.3
2017-06-17T08:14:28.510Z,-0.3
2017-06-17T08:16:27.122Z,-0.3
2017-06-17T08:17:26.343Z,-0.4
2017-06-17T08:18:25.443Z,-0.4
2017-06-17T08:19:25.047Z,-0.4
2017-06-17T08:20:24.327Z,-0.4
2017-06-17T08:21:23.552Z,-0.3
2017-06-17T08:22:22.769Z,-0.3
2017-06-17T08:23:21.889Z,-0.3
2017-06-17T08:24:21.565Z,-0.3
2017-06-17T08:25:20.289Z,-0.3
2017-06-17T08:26:19.908Z,-0.2
2017-06-17T08:27:19.018Z,-0.1
2017-06-17T08:28:18.247Z,-0.1
2017-06-17T08:29:17.353Z,-0.1
2017-06-17T08:30:16.465Z,-0.1
2017-06-17T08:32:14.729Z,-0.2
2017-06-17T08:33:14.332Z,-0.3
2017-06-17T08:35:13.328Z,-0.3
2017-06-17T08:37:11.311Z,-0.3
2017-06-17T08:38:10.923Z,-0.3
2017-06-17T08:39:10.138Z,-0.2
2017-06-17T08:40:09.354Z,-0.2
2017-06-17T08:41:08.461Z,-0.2
2017-06-17T08:42:08.146Z,-0.2
2017-06-17T08:43:07.243Z,-0.2
2017-06-17T08:44:06.119Z,-0.3
2017-06-17T08:45:05.849Z,-0.2
2017-06-17T08:46:05.077Z,-0.2
2017-06-17T08:47:04.177Z,-0.1
2017-06-17T08:48:03.969Z,0
2017-06-17T08:49:02.636Z,0
2017-06-17T08:50:01.860Z,-0.2
2017-06-17T08:50:32.398Z,-0.2
2017-06-17T08:51:02.947Z,-0.2
2017-06-17T08:52:00.484Z,-0.2
2017-06-17T08:52:59.585Z,-0.1
2017-06-17T08:53:59.190Z,-0.1
2017-06-17T08:55:57.677Z,0
2017-06-17T08:56:56.891Z,-0.1
2017-06-17T08:57:55.994Z,-0.3
2017-06-17T08:58:55.095Z,-0.4
2017-06-17T08:59:54.589Z,-0.4
2017-06-17T09:00:54.082Z,-0.5
2017-06-17T09:01:53.192Z,-0.5
2017-06-17T09:02:52.293Z,-0.4
2017-06-17T09:03:52.012Z,-0.2
2017-06-17T09:04:51.243Z,-0.1
2017-06-17T09:05:51.039Z,-0.1
2017-06-17T09:06:49.758Z,-0.3
2017-06-17T09:07:48.976Z,-0.2
2017-06-17T09:08:48.201Z,-0.3
2017-06-17T09:09:47.183Z,-0.4
2017-06-17T09:10:46.921Z,-0.4
2017-06-17T09:11:46.139Z,-0.3
2017-06-17T09:12:16.448Z,-0.3
2017-06-17T09:13:44.355Z,-0.4
2017-06-17T09:14:43.576Z,-0.4
2017-06-17T09:15:43.188Z,-0.3
2017-06-17T09:16:42.405Z,-0.2
2017-06-17T09:17:41.624Z,-0.3
2017-06-17T09:18:40.841Z,-0.4
2017-06-17T09:19:40.651Z,-0.4
2017-06-17T09:20:39.250Z,-0.3
2017-06-17T09:21:38.975Z,-0.3
2017-06-17T09:22:38.080Z,-0.2
2017-06-17T09:23:37.870Z,-0.2
2017-06-17T09:24:36.587Z,-0.2
2017-06-17T09:25:35.689Z,-0.2
2017-06-17T09:26:34.907Z,-0.1
2017-06-17T09:27:34.633Z,-0.2
2017-06-17T09:29:32.619Z,-0.3
2017-06-17T09:30:31.870Z,-0.3
2017-06-17T09:31:31.480Z,-0.2
2017-06-17T09:32:30.470Z,-0.3
2017-06-17T09:33:30.206Z,-0.4
2017-06-17T09:34:29.195Z,-0.3
2017-06-17T09:35:28.834Z,-0.2
2017-06-17T09:36:27.814Z,-0.2
2017-06-17T09:37:26.816Z,-0.2
2017-06-17T09:38:26.495Z,-0.1
2017-06-17T09:39:25.577Z,-0.1
2017-06-17T09:40:25.188Z,-0.2
2017-06-17T09:41:23.938Z,-0.3
2017-06-17T09:42:23.665Z,-0.3
2017-06-17T09:43:22.887Z,-0.2
2017-06-17T09:44:22.106Z,-0.2
2017-06-17T09:45:21.336Z,-0.3
2017-06-17T09:46:21.069Z,-0.3
2017-06-17T09:47:20.308Z,-0.2
2017-06-17T09:48:19.532Z,-0.1
2017-06-17T09:49:18.756Z,-0.2
2017-06-17T09:50:17.978Z,-0.1
2017-06-17T09:51:17.202Z,-0.1
2017-06-17T09:52:16.864Z,-0.2
2017-06-17T09:53:16.086Z,-0.4
2017-06-17T09:55:14.210Z,-0.5
2017-06-17T09:56:13.812Z,-0.4
2017-06-17T09:57:12.798Z,-0.3
2017-06-17T09:58:12.282Z,-0.3
2017-06-17T09:59:11.499Z,-0.3
2017-06-17T10:01:10.119Z,-0.3
2017-06-17T10:02:09.226Z,-0.3
2017-06-17T10:03:08.778Z,-0.4
2017-06-17T10:04:07.675Z,-0.4
2017-06-17T10:05:07.166Z,-0.4
2017-06-17T10:06:06.654Z,-0.3
2017-06-17T10:07:05.706Z,-0.2
2017-06-17T10:08:05.308Z,-0.2
2017-06-17T10:09:04.416Z,-0.2
2017-06-17T10:10:03.548Z,-0.1
2017-06-17T10:11:03.302Z,0.1
2017-06-17T10:13:01.940Z,0.2
2017-06-17T10:14:00.815Z,0.2
2017-06-17T10:15:00.037Z,0.3
2017-06-17T10:16:00.338Z,0.3
2017-06-17T10:16:59.055Z,0.3
2017-06-17T10:17:58.277Z,0.3
2017-06-17T10:18:57.374Z,0.3
2017-06-17T10:19:56.480Z,0.2
2017-06-17T10:20:55.972Z,0
2017-06-17T10:21:26.395Z,0
2017-06-17T10:21:57.377Z,0
2017-06-17T10:22:27.168Z,0
2017-06-17T10:22:57.585Z,0
2017-06-17T10:23:54.056Z,0
2017-06-17T10:24:53.279Z,0.2
2017-06-17T10:26:51.771Z,0.1
2017-06-17T10:27:50.987Z,0.2
2017-06-17T10:28:50.093Z,0.4
2017-06-17T10:29:49.817Z,0.3
2017-06-17T10:30:48.935Z,0.3
2017-06-17T10:31:48.769Z,0.1
2017-06-17T10:32:47.370Z,0.2
2017-06-17T10:33:47.094Z,0.2
2017-06-17T10:34:46.312Z,0.2
2017-06-17T10:35:45.418Z,0.2
2017-06-17T10:36:45.029Z,0.3
2017-06-17T10:37:45.255Z,0.4
2017-06-17T10:38:43.930Z,0.5
2017-06-17T10:39:42.538Z,0.6
2017-06-17T10:41:41.665Z,0.7
2017-06-17T10:42:40.766Z,0.7
2017-06-17T10:43:39.990Z,0.6
2017-06-17T10:44:39.217Z,0.5
2017-06-17T10:45:38.438Z,0.5
2017-06-17T10:46:38.045Z,0.5
2017-06-17T10:47:37.517Z,0.4
2017-06-17T10:48:36.734Z,0.5
2017-06-17T10:49:35.838Z,0.6
2017-06-17T10:50:34.938Z,0.6
2017-06-17T10:51:34.425Z,0.7
2017-06-17T10:52:34.146Z,0.6
2017-06-17T10:53:33.010Z,0.5
2017-06-17T10:54:32.754Z,0.4
2017-06-17T10:55:31.970Z,0.5
2017-06-17T10:56:31.188Z,0.5
2017-06-17T10:57:30.170Z,0.7
2017-06-17T10:58:29.897Z,0.8
2017-06-17T10:59:29.118Z,0.8
2017-06-17T11:00:28.927Z,0.9
2017-06-17T11:01:27.537Z,0.9
2017-06-17T11:02:27.271Z,1
2017-06-17T11:03:26.490Z,0.9
2017-06-17T11:04:26.281Z,0.7
2017-06-17T11:05:24.762Z,0.6
2017-06-17T11:06:24.366Z,0.5
2017-06-17T11:07:23.588Z,0.6
2017-06-17T11:08:22.810Z,0.7
2017-06-17T11:09:22.530Z,0.5
2017-06-17T11:10:21.762Z,0.6
2017-06-17T11:11:20.981Z,0.5
2017-06-17T11:12:20.205Z,0.4
2017-06-17T11:13:19.311Z,0.4
2017-06-17T11:14:19.035Z,0.4
2017-06-17T11:15:18.029Z,0.4
2017-06-17T11:16:17.633Z,0.5
2017-06-17T11:17:17.318Z,0.6
2017-06-17T11:18:15.913Z,0.7
2017-06-17T11:19:15.472Z,1
2017-06-17T11:20:14.696Z,1.1
2017-06-17T11:21:14.301Z,1.2
2017-06-17T11:23:12.435Z,1.6
2017-06-17T11:24:12.164Z,1.7
2017-06-17T11:25:11.389Z,1.6
2017-06-17T11:26:10.616Z,1.5
2017-06-17T11:27:10.243Z,1.4
2017-06-17T11:28:10.041Z,1.4
2017-06-17T11:29:08.674Z,1.3
2017-06-17T11:30:08.289Z,1.2
2017-06-17T11:31:07.511Z,1.1
2017-06-17T11:33:06.013Z,0.9
2017-06-17T11:36:03.894Z,0.8
2017-06-17T11:37:03.620Z,0.9
2017-06-17T11:38:02.674Z,1.3
2017-06-17T11:39:01.975Z,1.3
2017-06-17T11:41:01.147Z,1.3
2017-06-17T11:41:59.834Z,1.6
2017-06-17T11:42:59.318Z,1.3
2017-06-17T11:43:58.923Z,1.2
2017-06-17T11:44:57.580Z,1.1
2017-06-17T11:45:57.186Z,1.2
2017-06-17T11:46:56.795Z,1.2
2017-06-17T11:47:56.023Z,1.2
2017-06-17T11:48:55.630Z,1
2017-06-17T11:49:54.744Z,0.8
2017-06-17T11:50:53.973Z,0.6
2017-06-17T11:51:53.584Z,0.9
2017-06-17T11:52:52.803Z,1
2017-06-17T11:53:52.877Z,1.3
2017-06-17T11:54:51.488Z,1.6
2017-06-17T11:55:50.708Z,1.8
2017-06-17T11:56:50.310Z,1.7
2017-06-17T11:57:49.412Z,2
2017-06-17T11:58:49.028Z,1.9
2017-06-17T11:59:48.256Z,1.9
2017-06-17T12:00:47.482Z,1.9
2017-06-17T12:02:46.483Z,2.2
2017-06-17T12:03:45.705Z,1.9
2017-06-17T12:04:44.812Z,2.1
2017-06-17T12:05:44.538Z,2.2
2017-06-17T12:06:43.643Z,2.1
2017-06-17T12:07:42.868Z,2.2
2017-06-17T12:08:42.599Z,2.4
2017-06-17T12:10:41.211Z,2
2017-06-17T12:11:40.316Z,1.9
2017-06-17T12:12:40.601Z,1.8
2017-06-17T12:13:39.326Z,1.6
2017-06-17T12:14:38.433Z,1.6
2017-06-17T12:15:37.657Z,1.6
2017-06-17T12:16:37.263Z,1.5
2017-06-17T12:18:35.757Z,1.3
2017-06-17T12:19:35.482Z,1.3
2017-06-17T12:20:34.589Z,1.2
2017-06-17T12:21:34.394Z,1.1
2017-06-17T12:22:33.616Z,1
2017-06-17T12:23:32.791Z,0.8
2017-06-17T12:24:31.777Z,1.2
2017-06-17T12:25:31.387Z,1.7
2017-06-17T12:26:30.614Z,1.7
2017-06-17T12:27:30.336Z,1.7
2017-06-17T12:28:29.209Z,2.1
2017-06-17T12:29:29.495Z,2
2017-06-17T12:30:28.217Z,2.1
2017-06-17T12:31:27.442Z,2.3
2017-06-17T12:32:26.728Z,2.8
2017-06-17T12:33:26.455Z,2.7
2017-06-17T12:34:25.439Z,2.7
2017-06-17T12:35:25.161Z,2.4
2017-06-17T12:36:24.837Z,1.8
2017-06-17T12:37:23.557Z,1.9
2017-06-17T12:38:23.049Z,2.1
2017-06-17T12:38:54.165Z,2.1
2017-06-17T12:39:24.070Z,2.5
2017-06-17T12:39:54.610Z,2.5
2017-06-17T12:41:21.016Z,2.8
2017-06-17T12:42:20.742Z,2.9
2017-06-17T12:43:19.991Z,3.1
2017-06-17T12:44:19.098Z,3.2
2017-06-17T12:45:18.830Z,2.5
2017-06-17T12:46:18.053Z,2.6
2017-06-17T12:47:17.281Z,2.9
2017-06-17T12:48:16.766Z,2.8
2017-06-17T12:49:15.754Z,2.9
2017-06-17T12:50:15.365Z,3
2017-06-17T12:51:15.667Z,2.8
2017-06-17T12:52:14.391Z,2.7
2017-06-17T12:53:13.626Z,2.6
2017-06-17T12:54:12.850Z,2.7
2017-06-17T12:55:12.457Z,2.5
2017-06-17T12:56:11.690Z,2.4
2017-06-17T12:57:11.418Z,2.3
2017-06-17T12:58:10.637Z,2.6
2017-06-17T12:59:09.857Z,2.5
2017-06-17T13:00:10.034Z,2.6
2017-06-17T13:00:40.067Z,2.6
2017-06-17T13:01:10.602Z,2.8
2017-06-17T13:02:08.312Z,2.7
2017-06-17T13:03:07.417Z,2.5
2017-06-17T13:04:07.024Z,2.7
2017-06-17T13:05:05.899Z,2.9
2017-06-17T13:06:05.393Z,3
2017-06-17T13:07:05.007Z,2.9
2017-06-17T13:08:04.231Z,2.8
2017-06-17T13:09:03.835Z,2.3
2017-06-17T13:10:02.716Z,1.9
2017-06-17T13:11:02.207Z,1.9
2017-06-17T13:12:01.929Z,2
2017-06-17T13:14:01.041Z,1.7
2017-06-17T13:15:00.256Z,1.5
2017-06-17T13:15:59.390Z,1.8
2017-06-17T13:16:58.879Z,2.2
2017-06-17T13:17:58.368Z,2.5
2017-06-17T13:18:57.467Z,2.5
2017-06-17T13:19:57.070Z,2.4
2017-06-17T13:20:56.068Z,2.3
2017-06-17T13:21:56.135Z,2.3
2017-06-17T13:22:55.121Z,2.1
2017-06-17T13:23:55.297Z,2.1
2017-06-17T13:24:53.894Z,2.1
2017-06-17T13:25:53.512Z,1.9
2017-06-17T13:26:52.625Z,1.7
2017-06-17T13:27:52.354Z,1.6
2017-06-17T13:28:51.462Z,1.6
2017-06-17T13:29:51.066Z,1.6
2017-06-17T13:30:50.757Z,1.5
2017-06-17T13:31:49.986Z,1.4
2017-06-17T13:32:49.103Z,1.6
2017-06-17T13:33:48.355Z,1.5
2017-06-17T13:34:48.080Z,1.6
2017-06-17T13:35:47.325Z,1.9
2017-06-17T13:37:46.388Z,2.5
2017-06-17T13:38:45.492Z,2.2
2017-06-17T13:39:44.718Z,2.3
2017-06-17T13:40:44.451Z,1.9
2017-06-17T13:41:43.670Z,1.8
2017-06-17T13:42:42.890Z,1.7
2017-06-17T13:43:42.612Z,1.9
2017-06-17T13:44:41.713Z,2.3
2017-06-17T13:45:40.809Z,2.2
2017-06-17T13:46:40.541Z,2.3
2017-06-17T13:47:39.763Z,2.6
2017-06-17T13:48:39.375Z,2.8
2017-06-17T13:49:38.598Z,2.9
2017-06-17T13:50:38.220Z,2.8
2017-06-17T13:51:37.865Z,3.1
2017-06-17T13:52:37.657Z,2.8
2017-06-17T13:53:36.150Z,2.9
2017-06-17T13:54:35.882Z,2.7
2017-06-17T13:55:35.107Z,3
2017-06-17T13:56:34.116Z,3.1
2017-06-17T13:58:33.226Z,2.6
2017-06-17T13:59:32.453Z,2.7
2017-06-17T14:00:32.203Z,3
2017-06-17T14:01:31.988Z,3
2017-06-17T14:02:30.584Z,2.8
2017-06-17T14:03:30.305Z,2.8
2017-06-17T14:04:30.096Z,2.8
2017-06-17T14:05:28.700Z,2.4
2017-06-17T14:06:28.429Z,2.1
2017-06-17T14:07:28.608Z,2
2017-06-17T14:08:27.752Z,1.8
2017-06-17T14:09:26.472Z,1.9
2017-06-17T14:10:26.201Z,2.1
2017-06-17T14:11:25.185Z,2.4
2017-06-17T14:12:24.810Z,2.5
2017-06-17T14:13:24.472Z,2.9
2017-06-17T14:14:23.583Z,2.3
2017-06-17T14:15:22.689Z,2.3
2017-06-17T14:16:22.422Z,2.3
2017-06-17T14:17:21.706Z,2.4
2017-06-17T14:18:21.318Z,1.9
2017-06-17T14:19:20.429Z,1.8
2017-06-17T14:20:20.155Z,1.8
2017-06-17T14:21:19.139Z,1.7
2017-06-17T14:23:18.138Z,2.1
2017-06-17T14:24:17.744Z,2.1
2017-06-17T14:25:16.843Z,2.1
2017-06-17T14:26:16.095Z,2.2
2017-06-17T14:27:15.823Z,2.2
2017-06-17T14:28:14.930Z,2.4
2017-06-17T14:29:14.415Z,2.4